Time;durP1;ratioP1;P1;durP2;ratioP2;P2;SDS_P1;SDS_P2;PMS_P1;PMS_P2;Temp;Humidity;BMP_temperature;BMP_pressure;BME280_temperature;BME280_humidity;BME280_pressure;Samples;Min_cycle;Max_cycle;Signal;HPM_P1;HPM_P2
2023/06/14 00:01:24;;;;;;;35.77;27.00;;;;;;;;;;4962150;29;20226;-95
2023/06/14 00:03:52;;;;;;;37.77;26.87;;;;;;;;;;4957397;29;20278;-94
2023/06/14 00:06:19;;;;;;;33.90;26.93;;;;;;;;;;4957137;29;20197;-94
2023/06/14 00:08:46;;;;;;;37.13;28.30;;;;;;;;;;4957251;29;20251;-94
2023/06/14 00:11:13;;;;;;;34.40;27.60;;;;;;;;;;4956822;29;20668;-93
2023/06/14 00:13:41;;;;;;;37.07;27.83;;;;;;;;;;4956548;29;20676;-94
2023/06/14 00:16:10;;;;;;;36.07;28.47;;;;;;;;;;4956272;29;20254;-95
2023/06/14 00:18:38;;;;;;;39.00;29.27;;;;;;;;;;4957160;28;20195;-96
2023/06/14 00:21:05;;;;;;;41.00;29.37;;;;;;;;;;4956699;28;20201;-94
2023/06/14 00:23:32;;;;;;;39.77;30.20;;;;;;;;;;4956833;28;20199;-95
2023/06/14 00:26:00;;;;;;;38.23;29.37;;;;;;;;;;4957076;29;20282;-94
2023/06/14 00:28:27;;;;;;;38.33;30.13;;;;;;;;;;4957331;28;20286;-95
2023/06/14 00:30:54;;;;;;;44.07;30.60;;;;;;;;;;4956408;29;20283;-96
2023/06/14 00:33:22;;;;;;;40.17;30.63;;;;;;;;;;4956965;28;20238;-94
2023/06/14 00:35:50;;;;;;;40.17;29.53;;;;;;;;;;4957021;29;20266;-95
2023/06/14 00:38:17;;;;;;;41.23;30.60;;;;;;;;;;4956969;29;20196;-95
2023/06/14 00:40:44;;;;;;;39.60;29.87;;;;;;;;;;4956652;29;20278;-94
2023/06/14 00:43:11;;;;;;;38.73;30.93;;;;;;;;;;4956601;29;20286;-95
2023/06/14 00:45:38;;;;;;;42.60;32.20;;;;;;;;;;4956589;28;20241;-95
2023/06/14 00:48:06;;;;;;;43.83;32.93;;;;;;;;;;4956578;29;20202;-95
2023/06/14 00:50:36;;;;;;;45.10;32.93;;;;;;;;;;4956276;29;20206;-94
2023/06/14 00:53:03;;;;;;;43.40;32.70;;;;;;;;;;4956688;29;20226;-94
2023/06/14 00:55:32;;;;;;;45.13;33.57;;;;;;;;;;4957166;29;20247;-96
2023/06/14 00:58:00;;;;;;;42.50;32.40;;;;;;;;;;4956812;29;20191;-94
2023/06/14 01:00:28;;;;;;;42.70;32.83;;;;;;;;;;4956430;29;20192;-95
2023/06/14 01:02:56;;;;;;;42.73;33.13;;;;;;;;;;4958805;29;20199;-95
2023/06/14 01:05:24;;;;;;;49.93;34.57;;;;;;;;;;4958304;28;20209;-96
2023/06/14 01:08:00;;;;;;;43.87;33.90;;;;;;;;;;4957365;28;20196;-95
2023/06/14 01:10:32;;;;;;;47.90;34.43;;;;;;;;;;4957428;29;20230;-95
2023/06/14 01:13:00;;;;;;;45.10;34.67;;;;;;;;;;4957027;29;20250;-96
2023/06/14 01:15:29;;;;;;;45.97;35.03;;;;;;;;;;4955739;29;20269;-94
2023/06/14 01:18:02;;;;;;;47.73;35.90;;;;;;;;;;4956357;29;20758;-95
2023/06/14 01:20:30;;;;;;;47.83;35.47;;;;;;;;;;4956659;29;20287;-95
2023/06/14 01:22:59;;;;;;;48.00;35.17;;;;;;;;;;4956672;29;20199;-95
2023/06/14 01:25:28;;;;;;;49.80;35.67;;;;;;;;;;4956857;29;20192;-96
2023/06/14 01:27:57;;;;;;;47.87;35.97;;;;;;;;;;4956953;29;20195;-95
2023/06/14 01:30:25;;;;;;;45.40;35.77;;;;;;;;;;4958006;29;20290;-95
2023/06/14 01:32:53;;;;;;;51.30;37.10;;;;;;;;;;4956994;28;20192;-95
2023/06/14 01:35:20;;;;;;;51.03;37.83;;;;;;;;;;4956417;28;20318;-96
2023/06/14 01:37:48;;;;;;;50.57;37.50;;;;;;;;;;4956689;29;20692;-96
2023/06/14 01:40:18;;;;;;;48.77;36.73;;;;;;;;;;4956581;28;20228;-95
2023/06/14 01:42:47;;;;;;;53.77;38.37;;;;;;;;;;4956456;29;20683;-96
2023/06/14 01:45:15;;;;;;;54.03;39.07;;;;;;;;;;4956099;29;20661;-95
2023/06/14 01:47:43;;;;;;;49.53;39.40;;;;;;;;;;4956191;29;20254;-95
2023/06/14 01:50:10;;;;;;;56.53;38.77;;;;;;;;;;4955414;28;20748;-95
2023/06/14 01:52:38;;;;;;;51.40;38.47;;;;;;;;;;4956028;29;20235;-95
2023/06/14 01:55:05;;;;;;;51.53;39.10;;;;;;;;;;4956130;29;20198;-95
2023/06/14 01:57:34;;;;;;;55.37;39.63;;;;;;;;;;4955381;28;20207;-94
2023/06/14 02:00:03;;;;;;;58.50;40.50;;;;;;;;;;4958986;29;20204;-95
2023/06/14 02:02:30;;;;;;;57.80;40.03;;;;;;;;;;4958735;28;20199;-94
2023/06/14 02:04:58;;;;;;;55.23;39.60;;;;;;;;;;4959099;29;20297;-93
2023/06/14 02:07:25;;;;;;;54.00;39.43;;;;;;;;;;4960151;29;20214;-95
2023/06/14 02:09:52;;;;;;;51.17;38.10;;;;;;;;;;4960654;29;20199;-94
2023/06/14 02:12:19;;;;;;;59.73;41.40;;;;;;;;;;4960699;29;20219;-95
2023/06/14 02:14:48;;;;;;;57.93;41.50;;;;;;;;;;4960617;29;20299;-95
2023/06/14 02:17:15;;;;;;;59.47;40.33;;;;;;;;;;4959612;29;20239;-95
2023/06/14 02:19:43;;;;;;;54.50;38.87;;;;;;;;;;4958992;29;20205;-95
2023/06/14 02:22:10;;;;;;;57.83;40.47;;;;;;;;;;4949796;28;20206;-94
2023/06/14 02:24:37;;;;;;;56.30;39.80;;;;;;;;;;4939472;29;20235;-95
2023/06/14 02:27:06;;;;;;;58.50;40.30;;;;;;;;;;4939470;29;20282;-95
2023/06/14 02:29:33;;;;;;;56.20;40.17;;;;;;;;;;4939666;29;20200;-95
2023/06/14 02:32:02;;;;;;;56.33;41.37;;;;;;;;;;4939879;29;20259;-96
2023/06/14 02:34:29;;;;;;;56.50;41.40;;;;;;;;;;4939720;29;20199;-93
2023/06/14 02:36:57;;;;;;;57.57;41.10;;;;;;;;;;4939280;29;20255;-95
2023/06/14 02:39:24;;;;;;;55.77;40.70;;;;;;;;;;4939357;29;20223;-95
2023/06/14 02:41:51;;;;;;;60.77;42.63;;;;;;;;;;4939346;29;20596;-95
2023/06/14 02:44:19;;;;;;;57.47;43.43;;;;;;;;;;4939318;29;20223;-94
2023/06/14 02:46:46;;;;;;;58.17;41.70;;;;;;;;;;4939590;29;20198;-95
2023/06/14 02:49:15;;;;;;;59.47;42.30;;;;;;;;;;4939201;29;20279;-94
2023/06/14 02:51:42;;;;;;;63.13;42.80;;;;;;;;;;4938954;29;20295;-93
2023/06/14 02:54:10;;;;;;;56.70;41.73;;;;;;;;;;4938975;29;20227;-94
2023/06/14 02:56:37;;;;;;;55.67;40.80;;;;;;;;;;4939307;29;20283;-95
2023/06/14 02:59:04;;;;;;;56.83;41.97;;;;;;;;;;4940147;29;20279;-93
2023/06/14 03:01:34;;;;;;;59.10;42.83;;;;;;;;;;4939561;29;20291;-95
2023/06/14 03:04:03;;;;;;;58.03;43.67;;;;;;;;;;4938780;29;20192;-94
2023/06/14 03:06:31;;;;;;;61.60;44.77;;;;;;;;;;4939104;29;20211;-95
2023/06/14 03:09:00;;;;;;;62.73;45.37;;;;;;;;;;4940749;29;20635;-95
2023/06/14 03:11:28;;;;;;;68.87;45.47;;;;;;;;;;4938356;29;20646;-95
2023/06/14 03:13:56;;;;;;;66.93;46.07;;;;;;;;;;4939580;29;20610;-95
2023/06/14 03:16:24;;;;;;;66.07;46.07;;;;;;;;;;4939171;29;20311;-96
2023/06/14 03:18:52;;;;;;;69.43;46.67;;;;;;;;;;4939035;29;20271;-96
2023/06/14 03:21:20;;;;;;;74.33;49.03;;;;;;;;;;4938604;29;20256;-94
2023/06/14 03:23:48;;;;;;;67.30;47.03;;;;;;;;;;4938809;29;20227;-96
2023/06/14 03:26:17;;;;;;;65.70;46.53;;;;;;;;;;4938209;29;20702;-95
2023/06/14 03:28:45;;;;;;;68.00;47.53;;;;;;;;;;4938631;29;20284;-95
2023/06/14 03:31:13;;;;;;;66.60;47.30;;;;;;;;;;4938160;29;20203;-95
2023/06/14 03:33:40;;;;;;;71.47;47.47;;;;;;;;;;4938712;29;20729;-95
2023/06/14 03:36:07;;;;;;;65.37;45.83;;;;;;;;;;4938435;29;20428;-95
2023/06/14 03:38:35;;;;;;;67.40;46.63;;;;;;;;;;4938070;29;20232;-96
2023/06/14 03:41:03;;;;;;;72.00;47.00;;;;;;;;;;4938843;29;20208;-96
2023/06/14 03:43:31;;;;;;;69.80;48.17;;;;;;;;;;4938560;29;20279;-95
2023/06/14 03:45:58;;;;;;;70.83;48.63;;;;;;;;;;4938640;29;20200;-95
2023/06/14 03:48:25;;;;;;;71.70;48.70;;;;;;;;;;4938855;29;20227;-94
2023/06/14 03:50:54;;;;;;;70.83;49.50;;;;;;;;;;4938266;29;20192;-96
2023/06/14 03:53:23;;;;;;;73.17;50.37;;;;;;;;;;4938071;29;20199;-95
2023/06/14 03:55:52;;;;;;;70.30;48.73;;;;;;;;;;4938412;29;20188;-96
2023/06/14 03:58:20;;;;;;;78.20;49.00;;;;;;;;;;4939368;29;20646;-94
2023/06/14 04:00:48;;;;;;;72.07;49.50;;;;;;;;;;4939121;29;20622;-96
2023/06/14 04:03:15;;;;;;;70.90;49.07;;;;;;;;;;4939129;29;20242;-95
2023/06/14 04:05:44;;;;;;;75.90;51.57;;;;;;;;;;4968717;28;20195;-95
2023/06/14 04:08:14;;;;;;;76.70;50.80;;;;;;;;;;4977836;28;20241;-96
2023/06/14 04:10:41;;;;;;;73.67;51.07;;;;;;;;;;4979114;28;20202;-95
2023/06/14 04:13:11;;;;;;;76.80;51.30;;;;;;;;;;4979955;28;20225;-95
2023/06/14 04:15:41;;;;;;;77.80;51.50;;;;;;;;;;4966498;28;20221;-96
2023/06/14 04:18:09;;;;;;;76.37;52.03;;;;;;;;;;4958170;28;20228;-96
2023/06/14 04:20:36;;;;;;;71.80;50.13;;;;;;;;;;4958375;28;20286;-96
2023/06/14 04:23:13;;;;;;;75.27;51.97;;;;;;;;;;4957694;29;20255;-96
2023/06/14 04:25:45;;;;;;;74.90;49.87;;;;;;;;;;4957154;29;20198;-95
2023/06/14 04:28:12;;;;;;;75.93;51.70;;;;;;;;;;4957327;29;20205;-95
2023/06/14 04:30:41;;;;;;;77.33;51.67;;;;;;;;;;4956694;29;20755;-96
2023/06/14 04:33:09;;;;;;;74.80;50.40;;;;;;;;;;4957878;29;20226;-96
2023/06/14 04:35:38;;;;;;;78.90;51.03;;;;;;;;;;4958396;29;20199;-95
2023/06/14 04:38:08;;;;;;;79.00;51.40;;;;;;;;;;4958041;29;20238;-96
2023/06/14 04:40:42;;;;;;;77.63;52.60;;;;;;;;;;4957575;29;20210;-96
2023/06/14 04:43:12;;;;;;;77.53;51.00;;;;;;;;;;4961842;28;20222;-96
2023/06/14 04:45:44;;;;;;;78.50;51.50;;;;;;;;;;4976343;28;20190;-94
2023/06/14 04:48:12;;;;;;;74.97;49.23;;;;;;;;;;4975803;28;20245;-95
2023/06/14 04:50:40;;;;;;;79.50;52.00;;;;;;;;;;4975140;28;20201;-95
2023/06/14 04:53:08;;;;;;;74.00;50.43;;;;;;;;;;4983707;28;20191;-96
2023/06/14 04:55:35;;;;;;;76.30;50.57;;;;;;;;;;4991961;28;20191;-96
2023/06/14 04:58:03;;;;;;;73.83;49.37;;;;;;;;;;4978474;28;20226;-94
2023/06/14 05:00:31;;;;;;;75.67;51.13;;;;;;;;;;4975468;28;20278;-93
2023/06/14 05:03:00;;;;;;;75.73;49.67;;;;;;;;;;4977804;28;20202;-94
2023/06/14 05:05:28;;;;;;;73.20;49.90;;;;;;;;;;4975408;28;20194;-90
2023/06/14 05:07:55;;;;;;;74.77;51.00;;;;;;;;;;4975228;28;20199;-92
2023/06/14 05:10:22;;;;;;;72.27;50.63;;;;;;;;;;4975272;28;20637;-95
2023/06/14 05:12:50;;;;;;;74.87;50.63;;;;;;;;;;4975055;28;20683;-90
2023/06/14 05:15:17;;;;;;;77.90;51.47;;;;;;;;;;4965800;28;20318;-89
2023/06/14 05:17:44;;;;;;;68.67;49.13;;;;;;;;;;4955093;29;20341;-87
2023/06/14 05:20:13;;;;;;;78.83;48.93;;;;;;;;;;4955733;28;20214;-90
2023/06/14 05:22:40;;;;;;;71.53;49.37;;;;;;;;;;4954476;29;20277;-88
2023/06/14 05:25:08;;;;;;;73.33;47.63;;;;;;;;;;4955031;29;20234;-86
2023/06/14 05:27:36;;;;;;;70.63;48.13;;;;;;;;;;4954921;29;20289;-87
2023/06/14 05:30:04;;;;;;;64.50;46.93;;;;;;;;;;4955348;29;20562;-87
2023/06/14 05:32:32;;;;;;;63.60;46.60;;;;;;;;;;4955271;28;20191;-87
2023/06/14 05:34:59;;;;;;;60.63;45.10;;;;;;;;;;4958667;28;20210;-86
2023/06/14 05:37:27;;;;;;;61.73;44.83;;;;;;;;;;4957336;29;20246;-88
2023/06/14 05:39:55;;;;;;;55.93;42.73;;;;;;;;;;4959233;29;20286;-88
2023/06/14 05:42:22;;;;;;;56.03;41.87;;;;;;;;;;4958519;28;20196;-89
2023/06/14 05:44:49;;;;;;;51.75;40.35;;;;;;;;;;4958785;28;20248;-88
2023/06/14 05:47:16;;;;;;;49.50;38.47;;;;;;;;;;4957347;28;20230;-87
2023/06/14 05:49:44;;;;;;;48.65;39.38;;;;;;;;;;4966880;28;20205;-88
2023/06/14 05:52:12;;;;;;;47.63;38.83;;;;;;;;;;4977706;28;20290;-87
2023/06/14 05:54:41;;;;;;;45.55;36.55;;;;;;;;;;4977509;28;20248;-88
2023/06/14 05:57:09;;;;;;;46.17;36.55;;;;;;;;;;4977633;28;20234;-88
2023/06/14 05:59:36;;;;;;;43.33;34.67;;;;;;;;;;4977611;28;20202;-88
2023/06/14 06:02:05;;;;;;;42.63;34.42;;;;;;;;;;4977617;28;20199;-87
2023/06/14 06:04:32;;;;;;;42.00;33.80;;;;;;;;;;4975688;28;20547;-88
2023/06/14 06:06:59;;;;;;;38.53;32.45;;;;;;;;;;4958286;29;20648;-88
2023/06/14 06:09:26;;;;;;;40.88;33.65;;;;;;;;;;4958645;29;20306;-89
2023/06/14 06:11:55;;;;;;;38.85;31.17;;;;;;;;;;4958178;29;20231;-89
2023/06/14 06:14:22;;;;;;;35.78;29.73;;;;;;;;;;4958331;28;20207;-89
2023/06/14 06:16:49;;;;;;;33.35;29.67;;;;;;;;;;4958574;29;20270;-91
2023/06/14 06:19:17;;;;;;;36.88;29.58;;;;;;;;;;4960110;28;20209;-88
2023/06/14 06:21:44;;;;;;;34.00;28.02;;;;;;;;;;4960744;29;20892;-89
2023/06/14 06:24:11;;;;;;;33.50;28.23;;;;;;;;;;4960263;29;20195;-88
2023/06/14 06:26:39;;;;;;;33.53;27.85;;;;;;;;;;4960303;29;20290;-87
2023/06/14 06:29:08;;;;;;;32.70;26.95;;;;;;;;;;4960105;29;20263;-87
2023/06/14 06:31:35;;;;;;;31.15;27.85;;;;;;;;;;4959889;28;20319;-86
2023/06/14 06:34:03;;;;;;;28.17;25.13;;;;;;;;;;4958742;28;20199;-88
2023/06/14 06:36:30;;;;;;;33.53;26.00;;;;;;;;;;4959341;28;20254;-86
2023/06/14 06:38:57;;;;;;;30.45;26.58;;;;;;;;;;4958943;29;20207;-85
2023/06/14 06:41:25;;;;;;;29.35;25.38;;;;;;;;;;4958908;28;20204;-87
2023/06/14 06:43:52;;;;;;;28.95;25.27;;;;;;;;;;4958783;28;20196;-87
2023/06/14 06:46:21;;;;;;;32.78;24.48;;;;;;;;;;4959039;28;20257;-87
2023/06/14 06:48:48;;;;;;;26.30;23.60;;;;;;;;;;4958948;29;20226;-89
2023/06/14 06:51:16;;;;;;;29.65;24.67;;;;;;;;;;4959335;28;20203;-87
2023/06/14 06:53:45;;;;;;;26.85;23.38;;;;;;;;;;4959429;28;20654;-87
2023/06/14 06:56:12;;;;;;;25.17;22.08;;;;;;;;;;4970515;28;20206;-88
2023/06/14 06:58:39;;;;;;;25.88;22.50;;;;;;;;;;4978591;28;20260;-87
2023/06/14 07:01:09;;;;;;;26.92;22.75;;;;;;;;;;4978606;28;20226;-90
2023/06/14 07:03:38;;;;;;;23.35;20.85;;;;;;;;;;4978685;28;20285;-89
2023/06/14 07:06:05;;;;;;;27.20;22.75;;;;;;;;;;4978731;28;20622;-88
2023/06/14 07:08:33;;;;;;;24.13;21.02;;;;;;;;;;4978356;28;20207;-89
2023/06/14 07:11:00;;;;;;;26.67;22.95;;;;;;;;;;4978900;28;20656;-89
2023/06/14 07:13:27;;;;;;;27.08;21.52;;;;;;;;;;4978409;28;20250;-89
2023/06/14 07:15:56;;;;;;;24.88;20.42;;;;;;;;;;4964069;28;20245;-90
2023/06/14 07:18:23;;;;;;;23.73;20.17;;;;;;;;;;4957654;28;20235;-87
2023/06/14 07:20:53;;;;;;;23.25;19.17;;;;;;;;;;4956646;29;20238;-88
2023/06/14 07:23:20;;;;;;;20.50;17.33;;;;;;;;;;4956491;28;20199;-89
2023/06/14 07:25:48;;;;;;;22.38;19.75;;;;;;;;;;4956942;29;20198;-89
2023/06/14 07:28:15;;;;;;;23.58;20.50;;;;;;;;;;4954992;29;20744;-88
2023/06/14 07:30:42;;;;;;;24.58;21.15;;;;;;;;;;4956914;29;20211;-88
2023/06/14 07:33:10;;;;;;;23.83;21.10;;;;;;;;;;4956826;29;20191;-88
2023/06/14 07:35:37;;;;;;;21.58;19.15;;;;;;;;;;4956641;28;20291;-89
2023/06/14 07:38:06;;;;;;;24.30;20.48;;;;;;;;;;4955898;29;20643;-88
2023/06/14 07:40:33;;;;;;;19.02;15.82;;;;;;;;;;4956742;29;20627;-89
2023/06/14 07:43:01;;;;;;;22.13;19.45;;;;;;;;;;4956027;29;20645;-87
2023/06/14 07:45:28;;;;;;;20.95;18.50;;;;;;;;;;4955696;28;20211;-87
2023/06/14 07:47:56;;;;;;;19.60;17.58;;;;;;;;;;4956236;29;20200;-89
2023/06/14 07:50:23;;;;;;;19.95;17.85;;;;;;;;;;4956400;28;20203;-89
2023/06/14 07:52:50;;;;;;;20.95;18.48;;;;;;;;;;4955850;29;20231;-88
2023/06/14 07:55:19;;;;;;;20.92;18.80;;;;;;;;;;4955538;28;20223;-88
2023/06/14 07:57:46;;;;;;;20.50;18.48;;;;;;;;;;4955480;28;20285;-88
2023/06/14 08:00:15;;;;;;;19.80;17.80;;;;;;;;;;4955647;29;20577;-88
2023/06/14 08:02:42;;;;;;;19.45;17.45;;;;;;;;;;4956332;29;20262;-87
2023/06/14 08:05:10;;;;;;;21.02;18.33;;;;;;;;;;4955422;28;20230;-86
2023/06/14 08:07:38;;;;;;;17.92;16.20;;;;;;;;;;4954743;28;20206;-85
2023/06/14 08:10:06;;;;;;;20.30;17.17;;;;;;;;;;4954976;28;20199;-86
2023/06/14 08:12:34;;;;;;;19.63;17.63;;;;;;;;;;4955240;29;20205;-86
2023/06/14 08:15:02;;;;;;;19.17;16.05;;;;;;;;;;4954581;29;20199;-87
2023/06/14 08:17:29;;;;;;;17.98;16.13;;;;;;;;;;4954560;29;20235;-85
2023/06/14 08:19:57;;;;;;;20.08;18.05;;;;;;;;;;4954817;29;20301;-84
2023/06/14 08:22:25;;;;;;;17.40;15.52;;;;;;;;;;4954264;29;20569;-86
2023/06/14 08:24:54;;;;;;;18.02;15.45;;;;;;;;;;4954617;28;20215;-86
2023/06/14 08:27:22;;;;;;;18.02;16.23;;;;;;;;;;4954652;28;20723;-85
2023/06/14 08:29:51;;;;;;;18.65;14.80;;;;;;;;;;4954248;29;20254;-86
2023/06/14 08:32:18;;;;;;;18.60;15.88;;;;;;;;;;4954829;29;20199;-85
2023/06/14 08:34:46;;;;;;;17.77;15.68;;;;;;;;;;4954754;29;20223;-86
2023/06/14 08:37:13;;;;;;;17.13;14.95;;;;;;;;;;4955445;29;20624;-86
2023/06/14 08:39:40;;;;;;;17.92;13.55;;;;;;;;;;4955043;29;20702;-87
2023/06/14 08:42:08;;;;;;;16.25;14.15;;;;;;;;;;4955111;29;20238;-87
2023/06/14 08:44:36;;;;;;;14.65;12.35;;;;;;;;;;4954071;28;20731;-86
2023/06/14 08:47:05;;;;;;;15.57;13.82;;;;;;;;;;4954374;29;20203;-86
2023/06/14 08:49:33;;;;;;;13.52;12.10;;;;;;;;;;4954532;29;20254;-88
2023/06/14 08:52:01;;;;;;;14.48;12.85;;;;;;;;;;4954274;29;20196;-87
2023/06/14 08:54:29;;;;;;;16.25;13.18;;;;;;;;;;4954810;29;20286;-88
2023/06/14 08:56:57;;;;;;;15.25;13.68;;;;;;;;;;4954794;29;20209;-88
2023/06/14 08:59:25;;;;;;;18.27;13.60;;;;;;;;;;4954542;29;20219;-89
2023/06/14 09:01:54;;;;;;;15.32;12.50;;;;;;;;;;4955590;29;20218;-88
2023/06/14 09:04:23;;;;;;;13.55;12.20;;;;;;;;;;4954423;29;20206;-89
2023/06/14 09:06:52;;;;;;;14.13;12.38;;;;;;;;;;4955298;28;20198;-88
2023/06/14 09:09:20;;;;;;;15.90;12.77;;;;;;;;;;4958500;29;20234;-88
2023/06/14 09:11:48;;;;;;;13.05;11.40;;;;;;;;;;4958809;29;20227;-88
2023/06/14 09:14:15;;;;;;;11.88;10.50;;;;;;;;;;4958560;29;20648;-89
2023/06/14 09:16:42;;;;;;;13.02;11.80;;;;;;;;;;4958045;28;20283;-87
2023/06/14 09:19:10;;;;;;;13.45;11.98;;;;;;;;;;4958254;29;20783;-88
2023/06/14 09:21:39;;;;;;;13.52;12.32;;;;;;;;;;4958359;28;20254;-87
2023/06/14 09:24:07;;;;;;;11.93;10.73;;;;;;;;;;4958241;29;20290;-88
2023/06/14 09:26:34;;;;;;;12.30;10.77;;;;;;;;;;4958179;29;20207;-88
2023/06/14 09:29:01;;;;;;;13.13;10.90;;;;;;;;;;4958288;28;20203;-88
2023/06/14 09:31:31;;;;;;;13.55;10.57;;;;;;;;;;4958258;29;20265;-88
2023/06/14 09:33:59;;;;;;;11.48;9.80;;;;;;;;;;4957880;29;20207;-88
2023/06/14 09:36:27;;;;;;;11.95;10.63;;;;;;;;;;4958969;28;20230;-89
2023/06/14 09:38:56;;;;;;;10.80;9.60;;;;;;;;;;4958249;29;20583;-89
2023/06/14 09:41:32;;;;;;;11.10;9.27;;;;;;;;;;4958310;28;20281;-89
2023/06/14 09:44:02;;;;;;;9.88;8.98;;;;;;;;;;4958892;28;20239;-88
2023/06/14 09:46:29;;;;;;;9.35;8.43;;;;;;;;;;4958636;28;20290;-88
2023/06/14 09:48:56;;;;;;;9.38;8.32;;;;;;;;;;4958374;28;20211;-90
2023/06/14 09:51:24;;;;;;;11.75;10.57;;;;;;;;;;4958283;28;20632;-91
2023/06/14 09:53:52;;;;;;;10.35;9.35;;;;;;;;;;4958692;29;20199;-89
2023/06/14 09:56:27;;;;;;;9.57;8.55;;;;;;;;;;4958058;28;20707;-89
2023/06/14 09:58:56;;;;;;;13.07;9.32;;;;;;;;;;4957757;28;20731;-88
2023/06/14 10:01:24;;;;;;;9.48;8.35;;;;;;;;;;4958124;28;20277;-90
2023/06/14 10:03:52;;;;;;;10.75;9.68;;;;;;;;;;4958165;28;20191;-88
2023/06/14 10:06:20;;;;;;;11.52;10.25;;;;;;;;;;4958337;28;20209;-91
2023/06/14 10:08:49;;;;;;;11.13;8.98;;;;;;;;;;4958281;28;20277;-90
2023/06/14 10:11:17;;;;;;;14.35;9.73;;;;;;;;;;4958059;28;20614;-89
2023/06/14 10:13:45;;;;;;;11.18;9.75;;;;;;;;;;4958447;28;20206;-90
2023/06/14 10:16:17;;;;;;;10.70;8.88;;;;;;;;;;4957932;29;20245;-88
2023/06/14 10:18:47;;;;;;;9.50;8.52;;;;;;;;;;4957196;28;20262;-89
2023/06/14 10:21:18;;;;;;;11.57;9.07;;;;;;;;;;4958871;28;20213;-87
2023/06/14 10:23:47;;;;;;;11.40;8.73;;;;;;;;;;4957129;28;20598;-86
2023/06/14 10:26:24;;;;;;;10.63;9.50;;;;;;;;;;4952850;28;20329;-84
2023/06/14 10:29:01;;;;;;;13.05;9.73;;;;;;;;;;4955126;28;20202;-84
2023/06/14 10:31:44;;;;;;;9.95;8.85;;;;;;;;;;4946631;28;20198;-84
2023/06/14 10:34:12;;;;;;;9.88;8.88;;;;;;;;;;4964286;28;20198;-86
2023/06/14 10:36:40;;;;;;;11.50;9.10;;;;;;;;;;4973110;28;20289;-85
2023/06/14 10:39:08;;;;;;;11.63;8.95;;;;;;;;;;4935882;29;20278;-86
2023/06/14 10:41:39;;;;;;;9.85;8.68;;;;;;;;;;4954159;28;20210;-86
2023/06/14 10:44:27;;;;;;;9.05;8.18;;;;;;;;;;4955056;28;20206;-85
2023/06/14 10:46:56;;;;;;;9.60;8.52;;;;;;;;;;4951899;28;20303;-85
2023/06/14 10:49:40;;;;;;;10.27;8.90;;;;;;;;;;4955652;28;20272;-84
2023/06/14 10:52:11;;;;;;;12.23;8.77;;;;;;;;;;4954912;28;20202;-84
2023/06/14 10:54:38;;;;;;;9.90;8.90;;;;;;;;;;4954178;28;20202;-86
2023/06/14 10:57:08;;;;;;;11.07;8.50;;;;;;;;;;4955214;28;20293;-85
2023/06/14 10:59:37;;;;;;;11.82;9.55;;;;;;;;;;4954773;28;20250;-87
2023/06/14 11:02:19;;;;;;;10.68;8.88;;;;;;;;;;4952715;28;20207;-86
2023/06/14 11:04:50;;;;;;;9.63;8.70;;;;;;;;;;4954163;29;20285;-88
2023/06/14 11:07:29;;;;;;;12.15;9.10;;;;;;;;;;4940634;28;20222;-93
2023/06/14 11:10:07;;;;;;;10.93;9.00;;;;;;;;;;4945944;28;20229;-89
2023/06/14 11:12:36;;;;;;;9.75;8.40;;;;;;;;;;4956623;29;20206;-93
2023/06/14 11:15:04;;;;;;;10.23;8.98;;;;;;;;;;4955678;29;20293;-87
2023/06/14 11:17:35;;;;;;;9.68;8.68;;;;;;;;;;4938922;28;20243;-90
2023/06/14 11:20:16;;;;;;;10.50;8.88;;;;;;;;;;4956559;28;20277;-87
2023/06/14 11:22:43;;;;;;;11.65;8.38;;;;;;;;;;4952917;29;20210;-86
2023/06/14 11:25:10;;;;;;;9.43;8.52;;;;;;;;;;4951280;28;20293;-86
2023/06/14 11:27:38;;;;;;;12.43;9.23;;;;;;;;;;4954869;28;20218;-86
2023/06/14 11:30:09;;;;;;;13.07;9.70;;;;;;;;;;4954668;28;20297;-85
2023/06/14 11:32:37;;;;;;;9.98;8.60;;;;;;;;;;4954166;28;20208;-85
2023/06/14 11:35:05;;;;;;;11.57;8.48;;;;;;;;;;4952684;28;20306;-86
2023/06/14 11:37:34;;;;;;;9.98;8.65;;;;;;;;;;4952485;29;20203;-85
2023/06/14 11:40:01;;;;;;;9.20;8.38;;;;;;;;;;4945663;28;20281;-86
2023/06/14 11:42:29;;;;;;;10.85;8.65;;;;;;;;;;4945602;28;20267;-86
2023/06/14 11:44:57;;;;;;;10.30;9.35;;;;;;;;;;4954576;28;20600;-87
2023/06/14 11:47:24;;;;;;;10.25;9.05;;;;;;;;;;4959621;28;20590;-88
2023/06/14 11:49:53;;;;;;;9.52;7.93;;;;;;;;;;4953065;28;20195;-86
2023/06/14 11:52:21;;;;;;;9.07;8.20;;;;;;;;;;4949059;28;20293;-87
2023/06/14 11:54:49;;;;;;;10.35;8.52;;;;;;;;;;4950475;28;20289;-88
2023/06/14 11:57:16;;;;;;;9.02;8.15;;;;;;;;;;4937444;29;20307;-87
2023/06/14 11:59:45;;;;;;;9.18;7.88;;;;;;;;;;4956567;28;20214;-87
2023/06/14 12:02:15;;;;;;;8.20;7.40;;;;;;;;;;4957698;28;20280;-88
2023/06/14 12:04:43;;;;;;;13.30;8.80;;;;;;;;;;4973415;28;20542;-90
2023/06/14 12:07:15;;;;;;;9.63;8.63;;;;;;;;;;4953765;29;20297;-88
2023/06/14 12:09:43;;;;;;;10.07;8.07;;;;;;;;;;4969474;28;20601;-88
2023/06/14 12:12:11;;;;;;;8.95;8.15;;;;;;;;;;4967622;28;20202;-88
2023/06/14 12:14:38;;;;;;;8.82;7.93;;;;;;;;;;4949516;28;20286;-87
2023/06/14 12:17:06;;;;;;;9.65;8.25;;;;;;;;;;4951745;28;20265;-87
2023/06/14 12:19:34;;;;;;;8.43;7.50;;;;;;;;;;4949978;28;20237;-88
2023/06/14 12:22:04;;;;;;;9.43;8.30;;;;;;;;;;4946502;29;20234;-89
2023/06/14 12:24:33;;;;;;;8.88;7.97;;;;;;;;;;4950336;28;20629;-88
2023/06/14 12:27:02;;;;;;;7.60;6.95;;;;;;;;;;4938432;29;20206;-87
2023/06/14 12:29:30;;;;;;;10.57;7.88;;;;;;;;;;4949550;28;20597;-87
2023/06/14 12:31:57;;;;;;;11.13;8.18;;;;;;;;;;4950165;29;20301;-87
2023/06/14 12:34:24;;;;;;;11.65;8.85;;;;;;;;;;4948974;28;20309;-86
2023/06/14 12:36:51;;;;;;;8.82;8.02;;;;;;;;;;4940288;29;20199;-87
2023/06/14 12:39:18;;;;;;;8.38;7.68;;;;;;;;;;4947612;28;20317;-86
2023/06/14 12:41:47;;;;;;;7.80;7.10;;;;;;;;;;4944133;28;20206;-86
2023/06/14 12:44:14;;;;;;;8.38;7.55;;;;;;;;;;4943067;28;20668;-86
2023/06/14 12:46:42;;;;;;;8.48;7.60;;;;;;;;;;4945701;28;20255;-86
2023/06/14 12:49:10;;;;;;;7.85;7.13;;;;;;;;;;4944421;29;20194;-86
2023/06/14 12:51:37;;;;;;;12.30;7.15;;;;;;;;;;4943346;28;20412;-90
2023/06/14 12:54:04;;;;;;;10.27;7.45;;;;;;;;;;4945665;29;20195;-85
2023/06/14 12:56:32;;;;;;;8.52;7.82;;;;;;;;;;4947317;28;20246;-83
2023/06/14 12:59:01;;;;;;;8.10;7.32;;;;;;;;;;4945119;28;20261;-86
2023/06/14 13:01:28;;;;;;;8.35;7.55;;;;;;;;;;4947842;28;20278;-86
2023/06/14 13:03:55;;;;;;;11.93;7.97;;;;;;;;;;4943992;29;20279;-87
2023/06/14 13:06:22;;;;;;;8.20;7.45;;;;;;;;;;4939863;29;20283;-86
2023/06/14 13:08:50;;;;;;;8.88;7.97;;;;;;;;;;4949379;28;20215;-86
2023/06/14 13:11:19;;;;;;;8.60;7.90;;;;;;;;;;4963365;28;20202;-86
2023/06/14 13:13:47;;;;;;;8.63;6.97;;;;;;;;;;4972507;28;20205;-86
2023/06/14 13:16:15;;;;;;;8.50;7.55;;;;;;;;;;4953631;28;20235;-86
2023/06/14 13:18:43;;;;;;;7.72;7.03;;;;;;;;;;4952252;28;20205;-86
2023/06/14 13:21:10;;;;;;;8.25;7.50;;;;;;;;;;4960178;28;20199;-86
2023/06/14 13:23:37;;;;;;;7.97;7.28;;;;;;;;;;4945205;28;20293;-86
2023/06/14 13:26:04;;;;;;;7.97;6.50;;;;;;;;;;4950477;28;20273;-87
2023/06/14 13:28:32;;;;;;;7.05;6.40;;;;;;;;;;4949148;28;20632;-88
2023/06/14 13:31:00;;;;;;;7.13;6.50;;;;;;;;;;4939951;29;20246;-86
2023/06/14 13:33:29;;;;;;;7.85;7.10;;;;;;;;;;4942343;28;20203;-86
2023/06/14 13:35:56;;;;;;;7.53;6.82;;;;;;;;;;4943556;28;20851;-85
2023/06/14 13:38:23;;;;;;;8.15;7.10;;;;;;;;;;4944984;28;20219;-85
2023/06/14 13:40:50;;;;;;;7.43;6.82;;;;;;;;;;4948493;28;20309;-86
2023/06/14 13:43:18;;;;;;;8.02;7.18;;;;;;;;;;4949610;28;20203;-86
2023/06/14 13:45:45;;;;;;;8.60;7.70;;;;;;;;;;4954608;28;20327;-84
2023/06/14 13:48:13;;;;;;;8.07;6.95;;;;;;;;;;4943101;29;20634;-86
2023/06/14 13:50:41;;;;;;;7.85;7.05;;;;;;;;;;4948348;28;20199;-86
2023/06/14 13:53:08;;;;;;;8.52;7.13;;;;;;;;;;4941824;29;20283;-87
2023/06/14 13:55:36;;;;;;;6.38;5.88;;;;;;;;;;4948998;28;20222;-87
2023/06/14 13:58:03;;;;;;;8.35;6.60;;;;;;;;;;4945013;29;20227;-86
2023/06/14 14:00:30;;;;;;;7.80;7.00;;;;;;;;;;4952892;28;20305;-87
2023/06/14 14:02:59;;;;;;;7.45;6.75;;;;;;;;;;4945566;29;20234;-86
2023/06/14 14:05:29;;;;;;;6.32;5.75;;;;;;;;;;4947735;28;20206;-85
2023/06/14 14:07:58;;;;;;;6.15;5.65;;;;;;;;;;4947161;29;20288;-86
2023/06/14 14:10:25;;;;;;;9.02;7.00;;;;;;;;;;4951152;28;20238;-86
2023/06/14 14:12:54;;;;;;;7.20;6.57;;;;;;;;;;4943524;29;20203;-85
2023/06/14 14:15:21;;;;;;;7.93;6.78;;;;;;;;;;4946460;28;20199;-86
2023/06/14 14:17:49;;;;;;;7.07;6.38;;;;;;;;;;4944782;29;20304;-85
2023/06/14 14:20:16;;;;;;;7.43;6.60;;;;;;;;;;4947226;28;20712;-85
2023/06/14 14:22:44;;;;;;;7.40;6.70;;;;;;;;;;4946949;28;20581;-85
2023/06/14 14:25:12;;;;;;;7.55;6.65;;;;;;;;;;4946953;28;20195;-86
2023/06/14 14:27:40;;;;;;;9.60;7.30;;;;;;;;;;4947824;28;20282;-86
2023/06/14 14:30:07;;;;;;;8.85;7.13;;;;;;;;;;4955931;28;20234;-85